KAEL

Albert Lea Municipal Airport

Albert Lea, Minnesota, USA
METAR KAEL 101535Z AUTO 00000KT OVC002 M08/M08 A3019 RMK AO2 PWINO
Observed Flight Rules
Dec-10 @ 15:35 UTC (46 minutes ago)
Clouds
  • Overcast at 200' AGL
Temperatures Readings
Current -8°C / 18°F
Dewpoint -8°C / 18°F
Humidity 100%
Altimeter 30.19" Hg
Pressure 1022 hPa
Elevation 383
METAR KAEL 101535Z AUTO 00000KT OVC002 M08/M08 A3019 RMK AO2 PWINO
Observed Flight Rules
Dec-10 @ 15:35 UTC
(46 minutes ago)
Clouds
  • Overcast at 200' AGL
Temperature Dewpoint
-8°C / 18°F -8°C / 18°F
Humidity Altimeter Pressure
100% 30.19" Hg 1022 hPa